sensor_id;sensor_type;location;lat;lon;timestamp;P1;durP1;ratioP1;P2;durP2;ratioP2
27428;SDS011;14881;48.092;11.574;2023-03-12T00:02:17;8.77;;;5.72;;
27428;SDS011;14881;48.092;11.574;2023-03-12T00:04:46;9.15;;;6.18;;
27428;SDS011;14881;48.092;11.574;2023-03-12T00:07:14;7.70;;;5.47;;
27428;SDS011;14881;48.092;11.574;2023-03-12T00:09:43;8.30;;;6.28;;
27428;SDS011;14881;48.092;11.574;2023-03-12T00:12:11;9.60;;;5.57;;
27428;SDS011;14881;48.092;11.574;2023-03-12T00:14:39;8.80;;;6.10;;
27428;SDS011;14881;48.092;11.574;2023-03-12T00:17:07;7.95;;;5.82;;
27428;SDS011;14881;48.092;11.574;2023-03-12T00:19:34;7.25;;;5.32;;
27428;SDS011;14881;48.092;11.574;2023-03-12T00:22:02;7.40;;;5.25;;
27428;SDS011;14881;48.092;11.574;2023-03-12T00:24:30;6.65;;;5.53;;
27428;SDS011;14881;48.092;11.574;2023-03-12T00:26:59;7.68;;;5.68;;
27428;SDS011;14881;48.092;11.574;2023-03-12T00:29:27;7.85;;;5.68;;
27428;SDS011;14881;48.092;11.574;2023-03-12T00:31:54;7.32;;;5.28;;
27428;SDS011;14881;48.092;11.574;2023-03-12T00:34:22;5.90;;;4.78;;
27428;SDS011;14881;48.092;11.574;2023-03-12T00:36:50;7.88;;;5.25;;
27428;SDS011;14881;48.092;11.574;2023-03-12T00:39:17;9.30;;;5.22;;
27428;SDS011;14881;48.092;11.574;2023-03-12T00:41:45;6.15;;;4.88;;
27428;SDS011;14881;48.092;11.574;2023-03-12T00:44:14;5.90;;;5.10;;
27428;SDS011;14881;48.092;11.574;2023-03-12T00:46:44;9.13;;;5.00;;
27428;SDS011;14881;48.092;11.574;2023-03-12T00:49:12;9.18;;;4.97;;
27428;SDS011;14881;48.092;11.574;2023-03-12T00:51:40;7.25;;;5.35;;
27428;SDS011;14881;48.092;11.574;2023-03-12T00:54:07;6.32;;;4.95;;
27428;SDS011;14881;48.092;11.574;2023-03-12T00:56:35;10.73;;;5.05;;
27428;SDS011;14881;48.092;11.574;2023-03-12T00:59:03;8.43;;;5.00;;
27428;SDS011;14881;48.092;11.574;2023-03-12T01:01:32;7.72;;;4.90;;
27428;SDS011;14881;48.092;11.574;2023-03-12T01:04:00;9.98;;;4.63;;
27428;SDS011;14881;48.092;11.574;2023-03-12T01:06:28;8.02;;;5.20;;
27428;SDS011;14881;48.092;11.574;2023-03-12T01:08:55;11.38;;;5.40;;
27428;SDS011;14881;48.092;11.574;2023-03-12T01:11:23;8.98;;;5.18;;
27428;SDS011;14881;48.092;11.574;2023-03-12T01:13:51;6.75;;;4.85;;
27428;SDS011;14881;48.092;11.574;2023-03-12T01:16:19;10.75;;;5.10;;
27428;SDS011;14881;48.092;11.574;2023-03-12T01:18:48;6.28;;;4.70;;
27428;SDS011;14881;48.092;11.574;2023-03-12T01:21:16;8.05;;;4.80;;
27428;SDS011;14881;48.092;11.574;2023-03-12T01:23:44;8.00;;;5.47;;
27428;SDS011;14881;48.092;11.574;2023-03-12T01:26:12;6.90;;;4.97;;
27428;SDS011;14881;48.092;11.574;2023-03-12T01:28:41;7.00;;;4.90;;
27428;SDS011;14881;48.092;11.574;2023-03-12T01:31:09;6.93;;;5.30;;
27428;SDS011;14881;48.092;11.574;2023-03-12T01:33:40;7.35;;;5.20;;
27428;SDS011;14881;48.092;11.574;2023-03-12T01:36:14;8.32;;;5.28;;
27428;SDS011;14881;48.092;11.574;2023-03-12T01:41:13;5.93;;;4.65;;
27428;SDS011;14881;48.092;11.574;2023-03-12T01:43:41;6.88;;;4.85;;
27428;SDS011;14881;48.092;11.574;2023-03-12T01:49:00;7.45;;;4.70;;
27428;SDS011;14881;48.092;11.574;2023-03-12T01:51:35;7.47;;;4.45;;
27428;SDS011;14881;48.092;11.574;2023-03-12T01:54:08;8.93;;;4.85;;
27428;SDS011;14881;48.092;11.574;2023-03-12T01:56:39;7.18;;;5.05;;
27428;SDS011;14881;48.092;11.574;2023-03-12T01:59:09;7.15;;;4.95;;
27428;SDS011;14881;48.092;11.574;2023-03-12T02:01:41;6.15;;;4.68;;
27428;SDS011;14881;48.092;11.574;2023-03-12T02:04:09;6.60;;;4.25;;
27428;SDS011;14881;48.092;11.574;2023-03-12T02:06:40;6.85;;;4.53;;
27428;SDS011;14881;48.092;11.574;2023-03-12T02:09:14;9.23;;;4.40;;
27428;SDS011;14881;48.092;11.574;2023-03-12T02:11:45;6.13;;;4.90;;
27428;SDS011;14881;48.092;11.574;2023-03-12T02:14:14;6.68;;;4.32;;
27428;SDS011;14881;48.092;11.574;2023-03-12T02:16:41;7.85;;;4.72;;
27428;SDS011;14881;48.092;11.574;2023-03-12T02:19:12;6.20;;;4.10;;
27428;SDS011;14881;48.092;11.574;2023-03-12T02:21:47;7.18;;;4.70;;
27428;SDS011;14881;48.092;11.574;2023-03-12T02:24:16;6.63;;;4.93;;
27428;SDS011;14881;48.092;11.574;2023-03-12T02:26:53;5.32;;;4.20;;
27428;SDS011;14881;48.092;11.574;2023-03-12T02:29:23;4.70;;;4.10;;
27428;SDS011;14881;48.092;11.574;2023-03-12T02:31:53;7.22;;;4.32;;
27428;SDS011;14881;48.092;11.574;2023-03-12T02:34:24;9.88;;;4.57;;
27428;SDS011;14881;48.092;11.574;2023-03-12T02:36:52;7.57;;;4.63;;
27428;SDS011;14881;48.092;11.574;2023-03-12T02:39:20;8.38;;;4.38;;
27428;SDS011;14881;48.092;11.574;2023-03-12T02:41:49;8.35;;;4.28;;
27428;SDS011;14881;48.092;11.574;2023-03-12T02:44:20;5.55;;;4.50;;
27428;SDS011;14881;48.092;11.574;2023-03-12T02:46:52;6.68;;;4.32;;
27428;SDS011;14881;48.092;11.574;2023-03-12T02:49:23;6.10;;;4.75;;
27428;SDS011;14881;48.092;11.574;2023-03-12T02:51:53;6.03;;;4.72;;
27428;SDS011;14881;48.092;11.574;2023-03-12T02:54:21;4.80;;;4.30;;
27428;SDS011;14881;48.092;11.574;2023-03-12T02:56:49;6.55;;;4.70;;
27428;SDS011;14881;48.092;11.574;2023-03-12T02:59:19;6.97;;;4.70;;
27428;SDS011;14881;48.092;11.574;2023-03-12T03:01:53;6.60;;;4.45;;
27428;SDS011;14881;48.092;11.574;2023-03-12T03:04:22;7.00;;;4.78;;
27428;SDS011;14881;48.092;11.574;2023-03-12T03:06:53;7.25;;;4.72;;
27428;SDS011;14881;48.092;11.574;2023-03-12T03:09:21;6.80;;;4.32;;
27428;SDS011;14881;48.092;11.574;2023-03-12T03:11:52;6.80;;;4.60;;
27428;SDS011;14881;48.092;11.574;2023-03-12T03:14:21;8.85;;;5.10;;
27428;SDS011;14881;48.092;11.574;2023-03-12T03:16:49;7.75;;;4.80;;
27428;SDS011;14881;48.092;11.574;2023-03-12T03:19:17;5.85;;;4.10;;
27428;SDS011;14881;48.092;11.574;2023-03-12T03:21:45;5.32;;;4.13;;
27428;SDS011;14881;48.092;11.574;2023-03-12T03:24:12;6.75;;;4.68;;
27428;SDS011;14881;48.092;11.574;2023-03-12T03:26:40;5.38;;;4.10;;
27428;SDS011;14881;48.092;11.574;2023-03-12T03:29:08;5.93;;;4.75;;
27428;SDS011;14881;48.092;11.574;2023-03-12T03:31:37;5.60;;;4.25;;
27428;SDS011;14881;48.092;11.574;2023-03-12T03:34:05;6.18;;;4.47;;
27428;SDS011;14881;48.092;11.574;2023-03-12T03:36:32;7.35;;;4.80;;
27428;SDS011;14881;48.092;11.574;2023-03-12T03:39:00;6.60;;;4.90;;
27428;SDS011;14881;48.092;11.574;2023-03-12T03:41:28;7.00;;;4.47;;
27428;SDS011;14881;48.092;11.574;2023-03-12T03:43:57;6.72;;;4.47;;
27428;SDS011;14881;48.092;11.574;2023-03-12T03:46:26;6.88;;;4.68;;
27428;SDS011;14881;48.092;11.574;2023-03-12T03:48:55;6.43;;;4.95;;
27428;SDS011;14881;48.092;11.574;2023-03-12T03:51:26;5.55;;;4.20;;
27428;SDS011;14881;48.092;11.574;2023-03-12T03:53:54;9.20;;;4.55;;
27428;SDS011;14881;48.092;11.574;2023-03-12T03:56:22;5.95;;;4.47;;
27428;SDS011;14881;48.092;11.574;2023-03-12T03:58:55;5.03;;;4.18;;
27428;SDS011;14881;48.092;11.574;2023-03-12T04:01:22;8.20;;;4.30;;
27428;SDS011;14881;48.092;11.574;2023-03-12T04:03:50;5.28;;;4.40;;
27428;SDS011;14881;48.092;11.574;2023-03-12T04:06:19;6.13;;;4.40;;
27428;SDS011;14881;48.092;11.574;2023-03-12T04:08:48;5.65;;;5.03;;
27428;SDS011;14881;48.092;11.574;2023-03-12T04:11:16;7.95;;;5.03;;
27428;SDS011;14881;48.092;11.574;2023-03-12T04:13:45;6.18;;;4.97;;
27428;SDS011;14881;48.092;11.574;2023-03-12T04:16:13;6.25;;;4.45;;
27428;SDS011;14881;48.092;11.574;2023-03-12T04:18:48;7.78;;;4.68;;
27428;SDS011;14881;48.092;11.574;2023-03-12T04:21:16;5.65;;;4.38;;
27428;SDS011;14881;48.092;11.574;2023-03-12T04:23:45;5.13;;;4.63;;
27428;SDS011;14881;48.092;11.574;2023-03-12T04:26:12;7.45;;;4.78;;
27428;SDS011;14881;48.092;11.574;2023-03-12T04:28:43;7.45;;;5.10;;
27428;SDS011;14881;48.092;11.574;2023-03-12T04:31:14;11.57;;;5.30;;
27428;SDS011;14881;48.092;11.574;2023-03-12T04:33:42;7.20;;;4.53;;
27428;SDS011;14881;48.092;11.574;2023-03-12T04:36:10;6.47;;;4.32;;
27428;SDS011;14881;48.092;11.574;2023-03-12T04:38:38;7.90;;;4.80;;
27428;SDS011;14881;48.092;11.574;2023-03-12T04:41:08;7.50;;;5.10;;
27428;SDS011;14881;48.092;11.574;2023-03-12T04:43:38;5.80;;;4.38;;
27428;SDS011;14881;48.092;11.574;2023-03-12T04:46:06;6.90;;;4.97;;
27428;SDS011;14881;48.092;11.574;2023-03-12T04:48:34;8.02;;;4.68;;
27428;SDS011;14881;48.092;11.574;2023-03-12T04:51:03;9.77;;;5.28;;
27428;SDS011;14881;48.092;11.574;2023-03-12T04:53:32;7.78;;;4.68;;
27428;SDS011;14881;48.092;11.574;2023-03-12T04:56:00;7.47;;;5.50;;
27428;SDS011;14881;48.092;11.574;2023-03-12T04:58:29;6.85;;;5.43;;
27428;SDS011;14881;48.092;11.574;2023-03-12T05:00:57;8.68;;;5.90;;
27428;SDS011;14881;48.092;11.574;2023-03-12T05:03:27;6.32;;;4.95;;
27428;SDS011;14881;48.092;11.574;2023-03-12T05:05:57;8.80;;;4.97;;
27428;SDS011;14881;48.092;11.574;2023-03-12T05:08:26;7.78;;;5.15;;
27428;SDS011;14881;48.092;11.574;2023-03-12T05:10:56;7.47;;;4.68;;
27428;SDS011;14881;48.092;11.574;2023-03-12T05:13:24;5.43;;;4.82;;
27428;SDS011;14881;48.092;11.574;2023-03-12T05:15:53;7.40;;;5.07;;
27428;SDS011;14881;48.092;11.574;2023-03-12T05:18:23;11.57;;;6.00;;
27428;SDS011;14881;48.092;11.574;2023-03-12T05:20:57;8.05;;;6.30;;
27428;SDS011;14881;48.092;11.574;2023-03-12T05:23:26;8.65;;;6.20;;
27428;SDS011;14881;48.092;11.574;2023-03-12T05:25:54;9.18;;;5.85;;
27428;SDS011;14881;48.092;11.574;2023-03-12T05:28:22;8.18;;;5.45;;
27428;SDS011;14881;48.092;11.574;2023-03-12T05:30:55;10.40;;;7.60;;
27428;SDS011;14881;48.092;11.574;2023-03-12T05:33:24;12.23;;;6.85;;
27428;SDS011;14881;48.092;11.574;2023-03-12T05:35:56;10.43;;;7.28;;
27428;SDS011;14881;48.092;11.574;2023-03-12T05:38:24;8.88;;;6.70;;
27428;SDS011;14881;48.092;11.574;2023-03-12T05:40:55;10.93;;;7.22;;
27428;SDS011;14881;48.092;11.574;2023-03-12T05:43:25;9.13;;;6.45;;
27428;SDS011;14881;48.092;11.574;2023-03-12T05:45:56;11.05;;;7.18;;
27428;SDS011;14881;48.092;11.574;2023-03-12T05:48:27;11.90;;;6.78;;
27428;SDS011;14881;48.092;11.574;2023-03-12T05:50:57;8.80;;;5.10;;
27428;SDS011;14881;48.092;11.574;2023-03-12T05:53:28;10.88;;;6.80;;
27428;SDS011;14881;48.092;11.574;2023-03-12T05:56:01;10.25;;;6.50;;
27428;SDS011;14881;48.092;11.574;2023-03-12T05:58:29;9.57;;;7.22;;
27428;SDS011;14881;48.092;11.574;2023-03-12T06:00:59;10.88;;;7.72;;
27428;SDS011;14881;48.092;11.574;2023-03-12T06:03:27;11.45;;;8.27;;
27428;SDS011;14881;48.092;11.574;2023-03-12T06:05:55;12.35;;;8.15;;
27428;SDS011;14881;48.092;11.574;2023-03-12T06:08:23;11.82;;;7.88;;
27428;SDS011;14881;48.092;11.574;2023-03-12T06:10:51;11.80;;;8.32;;
27428;SDS011;14881;48.092;11.574;2023-03-12T06:13:21;11.20;;;7.78;;
27428;SDS011;14881;48.092;11.574;2023-03-12T06:16:01;11.32;;;7.18;;
27428;SDS011;14881;48.092;11.574;2023-03-12T06:18:32;9.68;;;7.32;;
27428;SDS011;14881;48.092;11.574;2023-03-12T06:21:09;9.68;;;7.20;;
27428;SDS011;14881;48.092;11.574;2023-03-12T06:23:38;11.98;;;6.60;;
27428;SDS011;14881;48.092;11.574;2023-03-12T06:26:05;9.25;;;6.50;;
27428;SDS011;14881;48.092;11.574;2023-03-12T06:28:34;9.90;;;7.07;;
27428;SDS011;14881;48.092;11.574;2023-03-12T06:31:03;9.35;;;6.63;;
27428;SDS011;14881;48.092;11.574;2023-03-12T06:33:32;8.95;;;7.38;;
27428;SDS011;14881;48.092;11.574;2023-03-12T06:36:01;11.40;;;7.22;;
27428;SDS011;14881;48.092;11.574;2023-03-12T06:38:30;11.13;;;6.53;;
27428;SDS011;14881;48.092;11.574;2023-03-12T06:40:59;8.98;;;6.35;;
27428;SDS011;14881;48.092;11.574;2023-03-12T06:43:28;9.25;;;6.43;;
27428;SDS011;14881;48.092;11.574;2023-03-12T06:45:58;8.65;;;6.10;;
27428;SDS011;14881;48.092;11.574;2023-03-12T06:48:34;8.15;;;6.28;;
27428;SDS011;14881;48.092;11.574;2023-03-12T06:51:02;9.10;;;6.50;;
27428;SDS011;14881;48.092;11.574;2023-03-12T06:53:30;9.70;;;6.00;;
27428;SDS011;14881;48.092;11.574;2023-03-12T06:55:58;8.63;;;5.93;;
27428;SDS011;14881;48.092;11.574;2023-03-12T06:58:26;8.77;;;6.03;;
27428;SDS011;14881;48.092;11.574;2023-03-12T07:00:54;7.22;;;5.88;;
27428;SDS011;14881;48.092;11.574;2023-03-12T07:03:22;7.50;;;6.15;;
27428;SDS011;14881;48.092;11.574;2023-03-12T07:05:51;6.45;;;5.63;;
27428;SDS011;14881;48.092;11.574;2023-03-12T07:08:22;6.80;;;5.65;;
27428;SDS011;14881;48.092;11.574;2023-03-12T07:10:50;8.88;;;5.55;;
27428;SDS011;14881;48.092;11.574;2023-03-12T07:13:18;9.60;;;5.55;;
27428;SDS011;14881;48.092;11.574;2023-03-12T07:15:46;6.85;;;5.43;;
27428;SDS011;14881;48.092;11.574;2023-03-12T07:18:14;7.75;;;5.53;;
27428;SDS011;14881;48.092;11.574;2023-03-12T07:20:42;6.75;;;4.90;;
27428;SDS011;14881;48.092;11.574;2023-03-12T07:23:13;8.32;;;5.00;;
27428;SDS011;14881;48.092;11.574;2023-03-12T07:25:43;6.47;;;5.05;;
27428;SDS011;14881;48.092;11.574;2023-03-12T07:28:11;8.93;;;5.65;;
27428;SDS011;14881;48.092;11.574;2023-03-12T07:30:39;7.93;;;5.13;;
27428;SDS011;14881;48.092;11.574;2023-03-12T07:33:16;8.00;;;5.28;;
27428;SDS011;14881;48.092;11.574;2023-03-12T07:35:45;7.22;;;5.28;;
27428;SDS011;14881;48.092;11.574;2023-03-12T07:38:18;7.53;;;4.95;;
27428;SDS011;14881;48.092;11.574;2023-03-12T07:40:49;8.32;;;4.70;;
27428;SDS011;14881;48.092;11.574;2023-03-12T07:43:17;6.47;;;4.78;;
27428;SDS011;14881;48.092;11.574;2023-03-12T07:45:47;5.55;;;4.15;;
27428;SDS011;14881;48.092;11.574;2023-03-12T07:48:15;5.65;;;4.47;;
27428;SDS011;14881;48.092;11.574;2023-03-12T07:50:45;6.72;;;4.38;;
27428;SDS011;14881;48.092;11.574;2023-03-12T07:53:12;6.70;;;4.32;;
27428;SDS011;14881;48.092;11.574;2023-03-12T07:55:46;6.47;;;4.50;;
27428;SDS011;14881;48.092;11.574;2023-03-12T07:58:17;6.18;;;4.78;;
27428;SDS011;14881;48.092;11.574;2023-03-12T08:00:45;4.68;;;3.83;;
27428;SDS011;14881;48.092;11.574;2023-03-12T08:03:13;5.85;;;4.00;;
27428;SDS011;14881;48.092;11.574;2023-03-12T08:05:43;6.00;;;3.88;;
27428;SDS011;14881;48.092;11.574;2023-03-12T08:08:10;6.45;;;4.40;;
27428;SDS011;14881;48.092;11.574;2023-03-12T08:10:38;5.65;;;4.03;;
27428;SDS011;14881;48.092;11.574;2023-03-12T08:13:07;6.35;;;4.30;;
27428;SDS011;14881;48.092;11.574;2023-03-12T08:15:35;5.82;;;3.55;;
27428;SDS011;14881;48.092;11.574;2023-03-12T08:18:03;5.55;;;3.78;;
27428;SDS011;14881;48.092;11.574;2023-03-12T08:20:31;4.78;;;3.80;;
27428;SDS011;14881;48.092;11.574;2023-03-12T08:22:58;5.22;;;4.20;;
27428;SDS011;14881;48.092;11.574;2023-03-12T08:25:26;5.85;;;3.58;;
27428;SDS011;14881;48.092;11.574;2023-03-12T08:27:55;5.03;;;3.22;;
27428;SDS011;14881;48.092;11.574;2023-03-12T08:30:24;7.57;;;3.78;;
27428;SDS011;14881;48.092;11.574;2023-03-12T08:32:55;4.75;;;3.55;;
27428;SDS011;14881;48.092;11.574;2023-03-12T08:35:23;8.02;;;4.05;;
27428;SDS011;14881;48.092;11.574;2023-03-12T08:37:51;4.00;;;3.60;;
27428;SDS011;14881;48.092;11.574;2023-03-12T08:40:19;7.45;;;4.50;;
27428;SDS011;14881;48.092;11.574;2023-03-12T08:42:47;4.93;;;4.03;;
27428;SDS011;14881;48.092;11.574;2023-03-12T08:45:14;6.40;;;3.92;;
27428;SDS011;14881;48.092;11.574;2023-03-12T08:47:44;5.05;;;3.83;;
27428;SDS011;14881;48.092;11.574;2023-03-12T08:50:15;4.53;;;4.13;;
27428;SDS011;14881;48.092;11.574;2023-03-12T08:52:43;4.13;;;3.55;;
27428;SDS011;14881;48.092;11.574;2023-03-12T08:55:14;5.25;;;4.40;;
27428;SDS011;14881;48.092;11.574;2023-03-12T08:57:41;7.18;;;5.00;;
27428;SDS011;14881;48.092;11.574;2023-03-12T09:00:10;9.85;;;5.10;;
27428;SDS011;14881;48.092;11.574;2023-03-12T09:02:42;8.15;;;4.85;;
27428;SDS011;14881;48.092;11.574;2023-03-12T09:05:12;8.68;;;4.50;;
27428;SDS011;14881;48.092;11.574;2023-03-12T09:07:40;5.47;;;4.30;;
27428;SDS011;14881;48.092;11.574;2023-03-12T09:10:09;5.45;;;4.10;;
27428;SDS011;14881;48.092;11.574;2023-03-12T09:12:37;7.70;;;4.90;;
27428;SDS011;14881;48.092;11.574;2023-03-12T09:15:05;4.20;;;3.80;;
27428;SDS011;14881;48.092;11.574;2023-03-12T09:17:34;5.55;;;3.80;;
27428;SDS011;14881;48.092;11.574;2023-03-12T09:20:03;4.13;;;3.42;;
27428;SDS011;14881;48.092;11.574;2023-03-12T09:22:33;4.20;;;3.60;;
27428;SDS011;14881;48.092;11.574;2023-03-12T09:25:02;5.43;;;4.68;;
27428;SDS011;14881;48.092;11.574;2023-03-12T09:27:33;5.55;;;3.70;;
27428;SDS011;14881;48.092;11.574;2023-03-12T09:30:02;7.75;;;4.38;;
27428;SDS011;14881;48.092;11.574;2023-03-12T09:32:31;5.00;;;4.38;;
27428;SDS011;14881;48.092;11.574;2023-03-12T09:34:59;5.18;;;4.30;;
27428;SDS011;14881;48.092;11.574;2023-03-12T09:37:28;6.93;;;4.43;;
27428;SDS011;14881;48.092;11.574;2023-03-12T09:39:57;5.32;;;3.97;;
27428;SDS011;14881;48.092;11.574;2023-03-12T09:42:26;5.88;;;4.40;;
27428;SDS011;14881;48.092;11.574;2023-03-12T09:45:03;4.75;;;4.15;;
27428;SDS011;14881;48.092;11.574;2023-03-12T09:47:34;4.38;;;3.80;;
27428;SDS011;14881;48.092;11.574;2023-03-12T09:50:04;6.03;;;4.80;;
27428;SDS011;14881;48.092;11.574;2023-03-12T09:52:45;5.32;;;4.40;;
27428;SDS011;14881;48.092;11.574;2023-03-12T09:55:17;7.05;;;4.03;;
27428;SDS011;14881;48.092;11.574;2023-03-12T09:57:49;5.00;;;4.40;;
27428;SDS011;14881;48.092;11.574;2023-03-12T10:00:19;4.68;;;4.00;;
27428;SDS011;14881;48.092;11.574;2023-03-12T10:02:52;5.45;;;4.53;;
27428;SDS011;14881;48.092;11.574;2023-03-12T10:05:30;4.53;;;3.90;;
27428;SDS011;14881;48.092;11.574;2023-03-12T10:08:06;5.13;;;4.07;;
27428;SDS011;14881;48.092;11.574;2023-03-12T10:10:52;4.60;;;3.70;;
27428;SDS011;14881;48.092;11.574;2023-03-12T10:13:27;5.30;;;4.35;;
27428;SDS011;14881;48.092;11.574;2023-03-12T10:18:46;4.60;;;3.97;;
27428;SDS011;14881;48.092;11.574;2023-03-12T10:21:25;4.30;;;3.80;;
27428;SDS011;14881;48.092;11.574;2023-03-12T10:24:02;4.65;;;4.22;;
27428;SDS011;14881;48.092;11.574;2023-03-12T10:26:38;4.25;;;3.72;;
27428;SDS011;14881;48.092;11.574;2023-03-12T10:29:10;4.30;;;3.78;;
27428;SDS011;14881;48.092;11.574;2023-03-12T10:31:46;5.80;;;4.30;;
27428;SDS011;14881;48.092;11.574;2023-03-12T10:34:18;5.53;;;4.15;;
27428;SDS011;14881;48.092;11.574;2023-03-12T10:36:50;3.75;;;3.30;;
27428;SDS011;14881;48.092;11.574;2023-03-12T10:39:26;4.95;;;3.72;;
27428;SDS011;14881;48.092;11.574;2023-03-12T10:41:54;5.32;;;3.72;;
27428;SDS011;14881;48.092;11.574;2023-03-12T10:44:24;4.45;;;3.70;;
27428;SDS011;14881;48.092;11.574;2023-03-12T10:47:04;6.35;;;3.88;;
27428;SDS011;14881;48.092;11.574;2023-03-12T10:49:35;5.20;;;3.67;;
27428;SDS011;14881;48.092;11.574;2023-03-12T10:52:05;3.72;;;3.28;;
27428;SDS011;14881;48.092;11.574;2023-03-12T10:54:42;3.80;;;3.15;;
27428;SDS011;14881;48.092;11.574;2023-03-12T10:57:11;4.10;;;3.70;;
27428;SDS011;14881;48.092;11.574;2023-03-12T10:59:42;4.85;;;3.38;;
27428;SDS011;14881;48.092;11.574;2023-03-12T11:02:31;4.72;;;3.80;;
27428;SDS011;14881;48.092;11.574;2023-03-12T11:05:01;4.03;;;3.25;;
27428;SDS011;14881;48.092;11.574;2023-03-12T11:07:45;4.32;;;3.50;;
27428;SDS011;14881;48.092;11.574;2023-03-12T11:10:19;3.67;;;3.28;;
27428;SDS011;14881;48.092;11.574;2023-03-12T11:12:56;3.28;;;2.95;;
27428;SDS011;14881;48.092;11.574;2023-03-12T11:15:27;3.45;;;3.15;;
27428;SDS011;14881;48.092;11.574;2023-03-12T11:18:16;3.40;;;3.10;;
27428;SDS011;14881;48.092;11.574;2023-03-12T11:21:13;3.45;;;3.00;;
27428;SDS011;14881;48.092;11.574;2023-03-12T11:23:43;3.45;;;2.90;;
27428;SDS011;14881;48.092;11.574;2023-03-12T11:26:17;3.05;;;2.53;;
27428;SDS011;14881;48.092;11.574;2023-03-12T11:28:47;2.75;;;2.55;;
27428;SDS011;14881;48.092;11.574;2023-03-12T11:31:19;2.28;;;2.08;;
27428;SDS011;14881;48.092;11.574;2023-03-12T11:33:52;2.58;;;2.38;;
27428;SDS011;14881;48.092;11.574;2023-03-12T11:36:30;1.90;;;1.80;;
27428;SDS011;14881;48.092;11.574;2023-03-12T11:39:08;1.70;;;1.60;;
27428;SDS011;14881;48.092;11.574;2023-03-12T11:41:55;2.85;;;2.03;;
27428;SDS011;14881;48.092;11.574;2023-03-12T11:44:34;2.17;;;1.70;;
27428;SDS011;14881;48.092;11.574;2023-03-12T11:47:16;2.20;;;1.70;;
27428;SDS011;14881;48.092;11.574;2023-03-12T11:50:00;1.90;;;1.80;;
27428;SDS011;14881;48.092;11.574;2023-03-12T11:52:42;1.80;;;1.70;;
27428;SDS011;14881;48.092;11.574;2023-03-12T11:55:32;1.85;;;1.65;;
27428;SDS011;14881;48.092;11.574;2023-03-12T11:58:22;3.05;;;2.00;;
27428;SDS011;14881;48.092;11.574;2023-03-12T12:01:07;2.70;;;2.05;;
27428;SDS011;14881;48.092;11.574;2023-03-12T12:03:43;2.85;;;2.03;;
27428;SDS011;14881;48.092;11.574;2023-03-12T12:06:20;1.90;;;1.80;;
27428;SDS011;14881;48.092;11.574;2023-03-12T12:08:58;2.47;;;2.28;;
27428;SDS011;14881;48.092;11.574;2023-03-12T12:11:35;2.65;;;2.33;;
27428;SDS011;14881;48.092;11.574;2023-03-12T12:14:14;3.17;;;2.83;;
27428;SDS011;14881;48.092;11.574;2023-03-12T12:16:56;4.00;;;3.40;;
27428;SDS011;14881;48.092;11.574;2023-03-12T12:19:37;5.45;;;3.47;;
27428;SDS011;14881;48.092;11.574;2023-03-12T12:22:22;3.33;;;2.83;;
27428;SDS011;14881;48.092;11.574;2023-03-12T12:28:07;6.03;;;3.78;;
27428;SDS011;14881;48.092;11.574;2023-03-12T12:30:56;4.55;;;3.95;;
27428;SDS011;14881;48.092;11.574;2023-03-12T12:33:39;4.30;;;3.90;;
27428;SDS011;14881;48.092;11.574;2023-03-12T12:36:21;4.65;;;4.07;;
27428;SDS011;14881;48.092;11.574;2023-03-12T12:38:55;4.45;;;4.05;;
27428;SDS011;14881;48.092;11.574;2023-03-12T12:41:28;7.40;;;5.30;;
27428;SDS011;14881;48.092;11.574;2023-03-12T12:44:01;6.45;;;5.68;;
27428;SDS011;14881;48.092;11.574;2023-03-12T12:46:35;7.03;;;6.20;;
27428;SDS011;14881;48.092;11.574;2023-03-12T12:49:07;7.05;;;6.35;;
27428;SDS011;14881;48.092;11.574;2023-03-12T12:51:40;5.90;;;5.13;;
27428;SDS011;14881;48.092;11.574;2023-03-12T12:54:15;5.80;;;5.05;;
27428;SDS011;14881;48.092;11.574;2023-03-12T12:56:51;6.22;;;5.45;;
27428;SDS011;14881;48.092;11.574;2023-03-12T12:59:25;6.60;;;5.90;;
27428;SDS011;14881;48.092;11.574;2023-03-12T13:02:01;9.77;;;5.85;;
27428;SDS011;14881;48.092;11.574;2023-03-12T13:04:32;8.85;;;5.50;;
27428;SDS011;14881;48.092;11.574;2023-03-12T13:07:27;9.68;;;5.72;;
27428;SDS011;14881;48.092;11.574;2023-03-12T13:10:04;8.18;;;6.22;;
27428;SDS011;14881;48.092;11.574;2023-03-12T13:12:35;11.93;;;7.97;;
27428;SDS011;14881;48.092;11.574;2023-03-12T13:18:16;7.15;;;5.80;;
27428;SDS011;14881;48.092;11.574;2023-03-12T13:20:59;7.85;;;6.40;;
27428;SDS011;14881;48.092;11.574;2023-03-12T13:23:40;6.82;;;5.60;;
27428;SDS011;14881;48.092;11.574;2023-03-12T13:26:17;5.20;;;4.68;;
27428;SDS011;14881;48.092;11.574;2023-03-12T13:28:57;8.38;;;4.95;;
27428;SDS011;14881;48.092;11.574;2023-03-12T13:31:38;7.80;;;4.90;;
27428;SDS011;14881;48.092;11.574;2023-03-12T13:36:59;7.68;;;4.15;;
27428;SDS011;14881;48.092;11.574;2023-03-12T13:39:30;6.57;;;4.35;;
27428;SDS011;14881;48.092;11.574;2023-03-12T13:41:59;7.20;;;4.63;;
27428;SDS011;14881;48.092;11.574;2023-03-12T13:44:30;7.15;;;4.78;;
27428;SDS011;14881;48.092;11.574;2023-03-12T13:47:04;10.20;;;3.85;;
27428;SDS011;14881;48.092;11.574;2023-03-12T13:49:52;7.10;;;4.20;;
27428;SDS011;14881;48.092;11.574;2023-03-12T13:52:23;6.53;;;4.35;;
27428;SDS011;14881;48.092;11.574;2023-03-12T13:54:58;6.20;;;3.30;;
27428;SDS011;14881;48.092;11.574;2023-03-12T13:57:29;6.00;;;3.22;;
27428;SDS011;14881;48.092;11.574;2023-03-12T14:00:06;5.53;;;3.33;;
27428;SDS011;14881;48.092;11.574;2023-03-12T14:02:42;3.55;;;3.00;;
27428;SDS011;14881;48.092;11.574;2023-03-12T14:05:15;4.20;;;2.92;;
27428;SDS011;14881;48.092;11.574;2023-03-12T14:08:02;6.03;;;2.70;;
27428;SDS011;14881;48.092;11.574;2023-03-12T14:10:43;3.58;;;2.83;;
27428;SDS011;14881;48.092;11.574;2023-03-12T14:16:18;6.80;;;3.00;;
27428;SDS011;14881;48.092;11.574;2023-03-12T14:18:52;5.93;;;2.70;;
27428;SDS011;14881;48.092;11.574;2023-03-12T14:21:22;5.85;;;3.05;;
27428;SDS011;14881;48.092;11.574;2023-03-12T14:23:53;4.00;;;2.92;;
27428;SDS011;14881;48.092;11.574;2023-03-12T14:26:24;5.10;;;2.67;;
27428;SDS011;14881;48.092;11.574;2023-03-12T14:28:56;5.40;;;3.30;;
27428;SDS011;14881;48.092;11.574;2023-03-12T14:31:27;6.20;;;3.03;;
27428;SDS011;14881;48.092;11.574;2023-03-12T14:33:57;4.57;;;2.83;;
27428;SDS011;14881;48.092;11.574;2023-03-12T14:36:31;5.85;;;2.50;;
27428;SDS011;14881;48.092;11.574;2023-03-12T14:39:09;5.80;;;2.40;;
27428;SDS011;14881;48.092;11.574;2023-03-12T14:41:47;3.97;;;2.35;;
27428;SDS011;14881;48.092;11.574;2023-03-12T14:44:22;3.97;;;2.40;;
27428;SDS011;14881;48.092;11.574;2023-03-12T14:46:54;6.13;;;3.20;;
27428;SDS011;14881;48.092;11.574;2023-03-12T14:49:23;5.43;;;3.10;;
27428;SDS011;14881;48.092;11.574;2023-03-12T14:51:52;3.85;;;2.72;;
27428;SDS011;14881;48.092;11.574;2023-03-12T14:54:21;6.97;;;3.03;;
27428;SDS011;14881;48.092;11.574;2023-03-12T14:56:50;4.40;;;1.98;;
27428;SDS011;14881;48.092;11.574;2023-03-12T14:59:23;5.15;;;3.50;;
27428;SDS011;14881;48.092;11.574;2023-03-12T15:01:54;4.32;;;2.22;;
27428;SDS011;14881;48.092;11.574;2023-03-12T15:04:26;3.80;;;2.30;;
27428;SDS011;14881;48.092;11.574;2023-03-12T15:06:59;3.45;;;2.20;;
27428;SDS011;14881;48.092;11.574;2023-03-12T15:09:31;3.15;;;2.25;;
27428;SDS011;14881;48.092;11.574;2023-03-12T15:12:02;6.70;;;2.47;;
27428;SDS011;14881;48.092;11.574;2023-03-12T15:14:33;5.38;;;2.20;;
27428;SDS011;14881;48.092;11.574;2023-03-12T15:17:04;2.67;;;1.88;;
27428;SDS011;14881;48.092;11.574;2023-03-12T15:19:34;3.80;;;2.15;;